sensor_id;sensor_type;location;lat;lon;timestamp;P1;durP1;ratioP1;P2;durP2;ratioP2
48845;SDS011;34665;51.886;5.436;2022-12-18T00:01:57;105.23;;;32.70;;
48845;SDS011;34665;51.886;5.436;2022-12-18T00:04:26;118.35;;;34.05;;
48845;SDS011;34665;51.886;5.436;2022-12-18T00:06:52;107.72;;;30.73;;
48845;SDS011;34665;51.886;5.436;2022-12-18T00:09:18;101.35;;;30.83;;
48845;SDS011;34665;51.886;5.436;2022-12-18T00:11:45;118.75;;;32.20;;
48845;SDS011;34665;51.886;5.436;2022-12-18T00:14:11;94.73;;;27.10;;
48845;SDS011;34665;51.886;5.436;2022-12-18T00:16:37;98.25;;;28.83;;
48845;SDS011;34665;51.886;5.436;2022-12-18T00:19:03;97.97;;;29.15;;
48845;SDS011;34665;51.886;5.436;2022-12-18T00:21:30;89.93;;;28.27;;
48845;SDS011;34665;51.886;5.436;2022-12-18T00:23:59;94.10;;;29.50;;
48845;SDS011;34665;51.886;5.436;2022-12-18T00:26:26;89.20;;;28.98;;
48845;SDS011;34665;51.886;5.436;2022-12-18T00:28:59;101.45;;;30.10;;
48845;SDS011;34665;51.886;5.436;2022-12-18T00:31:26;105.47;;;31.13;;
48845;SDS011;34665;51.886;5.436;2022-12-18T00:33:53;64.72;;;22.02;;
48845;SDS011;34665;51.886;5.436;2022-12-18T00:36:24;100.07;;;27.63;;
48845;SDS011;34665;51.886;5.436;2022-12-18T00:38:55;79.38;;;28.20;;
48845;SDS011;34665;51.886;5.436;2022-12-18T00:41:21;91.05;;;29.75;;
48845;SDS011;34665;51.886;5.436;2022-12-18T00:44:06;95.72;;;28.98;;
48845;SDS011;34665;51.886;5.436;2022-12-18T00:46:34;81.78;;;27.88;;
48845;SDS011;34665;51.886;5.436;2022-12-18T00:48:59;87.97;;;29.97;;
48845;SDS011;34665;51.886;5.436;2022-12-18T00:51:25;86.07;;;28.17;;
48845;SDS011;34665;51.886;5.436;2022-12-18T00:53:52;85.20;;;26.25;;
48845;SDS011;34665;51.886;5.436;2022-12-18T00:56:20;87.47;;;28.13;;
48845;SDS011;34665;51.886;5.436;2022-12-18T00:58:46;82.22;;;27.02;;
48845;SDS011;34665;51.886;5.436;2022-12-18T01:01:11;68.07;;;22.07;;
48845;SDS011;34665;51.886;5.436;2022-12-18T01:03:37;66.90;;;21.30;;
48845;SDS011;34665;51.886;5.436;2022-12-18T01:06:09;88.83;;;28.90;;
48845;SDS011;34665;51.886;5.436;2022-12-18T01:08:37;95.32;;;29.05;;
48845;SDS011;34665;51.886;5.436;2022-12-18T01:11:07;87.63;;;30.02;;
48845;SDS011;34665;51.886;5.436;2022-12-18T01:13:38;92.25;;;29.48;;
48845;SDS011;34665;51.886;5.436;2022-12-18T01:16:03;101.15;;;29.48;;
48845;SDS011;34665;51.886;5.436;2022-12-18T01:18:29;83.78;;;30.23;;
48845;SDS011;34665;51.886;5.436;2022-12-18T01:20:57;101.65;;;32.38;;
48845;SDS011;34665;51.886;5.436;2022-12-18T01:23:26;101.25;;;29.45;;
48845;SDS011;34665;51.886;5.436;2022-12-18T01:25:51;100.32;;;32.13;;
48845;SDS011;34665;51.886;5.436;2022-12-18T01:28:17;73.28;;;24.80;;
48845;SDS011;34665;51.886;5.436;2022-12-18T01:30:43;88.60;;;30.17;;
48845;SDS011;34665;51.886;5.436;2022-12-18T01:33:08;100.05;;;29.98;;
48845;SDS011;34665;51.886;5.436;2022-12-18T01:35:41;95.93;;;32.65;;
48845;SDS011;34665;51.886;5.436;2022-12-18T01:38:06;97.28;;;28.80;;
48845;SDS011;34665;51.886;5.436;2022-12-18T01:40:32;88.23;;;29.93;;
48845;SDS011;34665;51.886;5.436;2022-12-18T01:42:58;100.90;;;31.85;;
48845;SDS011;34665;51.886;5.436;2022-12-18T01:45:27;99.40;;;29.80;;
48845;SDS011;34665;51.886;5.436;2022-12-18T01:48:02;99.97;;;33.08;;
48845;SDS011;34665;51.886;5.436;2022-12-18T01:50:40;95.37;;;29.60;;
48845;SDS011;34665;51.886;5.436;2022-12-18T01:55:47;94.03;;;31.08;;
48845;SDS011;34665;51.886;5.436;2022-12-18T01:58:15;96.97;;;29.58;;
48845;SDS011;34665;51.886;5.436;2022-12-18T02:00:41;98.15;;;31.13;;
48845;SDS011;34665;51.886;5.436;2022-12-18T02:03:06;95.80;;;28.87;;
48845;SDS011;34665;51.886;5.436;2022-12-18T02:05:35;91.07;;;30.30;;
48845;SDS011;34665;51.886;5.436;2022-12-18T02:10:35;89.28;;;30.00;;
48845;SDS011;34665;51.886;5.436;2022-12-18T02:18:35;95.82;;;29.80;;
48845;SDS011;34665;51.886;5.436;2022-12-18T02:21:20;98.15;;;28.95;;
48845;SDS011;34665;51.886;5.436;2022-12-18T02:24:02;94.28;;;27.45;;
48845;SDS011;34665;51.886;5.436;2022-12-18T02:26:45;80.90;;;28.30;;
48845;SDS011;34665;51.886;5.436;2022-12-18T02:29:16;86.22;;;26.70;;
48845;SDS011;34665;51.886;5.436;2022-12-18T02:31:49;79.93;;;26.30;;
48845;SDS011;34665;51.886;5.436;2022-12-18T02:34:19;73.38;;;26.70;;
48845;SDS011;34665;51.886;5.436;2022-12-18T02:36:50;74.50;;;26.67;;
48845;SDS011;34665;51.886;5.436;2022-12-18T02:39:18;77.00;;;28.85;;
48845;SDS011;34665;51.886;5.436;2022-12-18T02:41:56;65.13;;;24.27;;
48845;SDS011;34665;51.886;5.436;2022-12-18T02:44:23;90.43;;;28.85;;
48845;SDS011;34665;51.886;5.436;2022-12-18T02:46:50;76.25;;;25.67;;
48845;SDS011;34665;51.886;5.436;2022-12-18T02:54:41;72.13;;;23.75;;
48845;SDS011;34665;51.886;5.436;2022-12-18T02:57:37;78.38;;;25.52;;
48845;SDS011;34665;51.886;5.436;2022-12-18T03:00:10;70.93;;;24.50;;
48845;SDS011;34665;51.886;5.436;2022-12-18T03:02:43;64.05;;;24.05;;
48845;SDS011;34665;51.886;5.436;2022-12-18T03:05:13;65.60;;;24.35;;
48845;SDS011;34665;51.886;5.436;2022-12-18T03:07:48;60.47;;;23.35;;
48845;SDS011;34665;51.886;5.436;2022-12-18T03:10:25;65.57;;;23.15;;
48845;SDS011;34665;51.886;5.436;2022-12-18T03:13:20;72.53;;;24.23;;
48845;SDS011;34665;51.886;5.436;2022-12-18T03:15:50;68.57;;;23.65;;
48845;SDS011;34665;51.886;5.436;2022-12-18T03:18:21;67.35;;;23.58;;
48845;SDS011;34665;51.886;5.436;2022-12-18T03:20:51;60.40;;;22.63;;
48845;SDS011;34665;51.886;5.436;2022-12-18T03:23:22;59.38;;;23.13;;
48845;SDS011;34665;51.886;5.436;2022-12-18T03:25:53;63.17;;;22.42;;
48845;SDS011;34665;51.886;5.436;2022-12-18T03:28:25;56.67;;;21.85;;
48845;SDS011;34665;51.886;5.436;2022-12-18T03:30:59;55.58;;;23.50;;
48845;SDS011;34665;51.886;5.436;2022-12-18T03:33:29;59.30;;;21.70;;
48845;SDS011;34665;51.886;5.436;2022-12-18T03:36:02;61.35;;;21.42;;
48845;SDS011;34665;51.886;5.436;2022-12-18T03:38:29;60.58;;;21.65;;
48845;SDS011;34665;51.886;5.436;2022-12-18T03:44:22;59.28;;;22.52;;
48845;SDS011;34665;51.886;5.436;2022-12-18T03:47:07;53.58;;;20.83;;
48845;SDS011;34665;51.886;5.436;2022-12-18T03:49:59;46.17;;;19.10;;
48845;SDS011;34665;51.886;5.436;2022-12-18T03:52:35;56.72;;;19.92;;
48845;SDS011;34665;51.886;5.436;2022-12-18T03:55:03;56.17;;;19.20;;
48845;SDS011;34665;51.886;5.436;2022-12-18T03:57:33;49.30;;;18.80;;
48845;SDS011;34665;51.886;5.436;2022-12-18T04:00:06;51.38;;;19.65;;
48845;SDS011;34665;51.886;5.436;2022-12-18T04:02:50;54.10;;;19.90;;
48845;SDS011;34665;51.886;5.436;2022-12-18T04:05:24;45.00;;;18.98;;
48845;SDS011;34665;51.886;5.436;2022-12-18T04:07:52;49.28;;;19.85;;
48845;SDS011;34665;51.886;5.436;2022-12-18T04:10:20;51.97;;;18.80;;
48845;SDS011;34665;51.886;5.436;2022-12-18T04:12:46;40.03;;;14.77;;
48845;SDS011;34665;51.886;5.436;2022-12-18T04:15:13;50.25;;;18.67;;
48845;SDS011;34665;51.886;5.436;2022-12-18T04:17:39;40.78;;;16.38;;
48845;SDS011;34665;51.886;5.436;2022-12-18T04:20:11;42.72;;;17.25;;
48845;SDS011;34665;51.886;5.436;2022-12-18T04:22:41;42.40;;;17.33;;
48845;SDS011;34665;51.886;5.436;2022-12-18T04:25:07;37.55;;;17.15;;
48845;SDS011;34665;51.886;5.436;2022-12-18T04:27:44;47.30;;;18.60;;
48845;SDS011;34665;51.886;5.436;2022-12-18T04:30:11;46.05;;;16.92;;
48845;SDS011;34665;51.886;5.436;2022-12-18T04:32:36;30.30;;;13.27;;
48845;SDS011;34665;51.886;5.436;2022-12-18T04:35:02;36.80;;;13.82;;
48845;SDS011;34665;51.886;5.436;2022-12-18T04:37:30;44.35;;;18.83;;
48845;SDS011;34665;51.886;5.436;2022-12-18T04:39:56;35.00;;;15.02;;
48845;SDS011;34665;51.886;5.436;2022-12-18T04:42:30;46.70;;;17.58;;
48845;SDS011;34665;51.886;5.436;2022-12-18T04:44:55;41.50;;;14.23;;
48845;SDS011;34665;51.886;5.436;2022-12-18T04:47:21;40.60;;;16.20;;
48845;SDS011;34665;51.886;5.436;2022-12-18T04:49:46;41.67;;;16.17;;
48845;SDS011;34665;51.886;5.436;2022-12-18T04:52:11;47.93;;;17.30;;
48845;SDS011;34665;51.886;5.436;2022-12-18T04:54:37;40.97;;;15.37;;
48845;SDS011;34665;51.886;5.436;2022-12-18T04:57:02;43.83;;;16.95;;
48845;SDS011;34665;51.886;5.436;2022-12-18T04:59:28;37.95;;;16.60;;
48845;SDS011;34665;51.886;5.436;2022-12-18T05:01:53;38.90;;;16.95;;
48845;SDS011;34665;51.886;5.436;2022-12-18T05:04:19;38.35;;;17.30;;
48845;SDS011;34665;51.886;5.436;2022-12-18T05:06:44;39.70;;;15.73;;
48845;SDS011;34665;51.886;5.436;2022-12-18T05:09:10;41.13;;;17.60;;
48845;SDS011;34665;51.886;5.436;2022-12-18T05:11:35;44.72;;;17.05;;
48845;SDS011;34665;51.886;5.436;2022-12-18T05:14:02;40.50;;;16.55;;
48845;SDS011;34665;51.886;5.436;2022-12-18T05:16:27;43.83;;;16.70;;
48845;SDS011;34665;51.886;5.436;2022-12-18T05:18:53;36.55;;;12.95;;
48845;SDS011;34665;51.886;5.436;2022-12-18T05:21:19;33.33;;;13.38;;
48845;SDS011;34665;51.886;5.436;2022-12-18T05:23:44;46.13;;;16.02;;
48845;SDS011;34665;51.886;5.436;2022-12-18T05:26:10;38.50;;;14.67;;
48845;SDS011;34665;51.886;5.436;2022-12-18T05:28:40;41.38;;;15.65;;
48845;SDS011;34665;51.886;5.436;2022-12-18T05:31:05;39.60;;;18.40;;
48845;SDS011;34665;51.886;5.436;2022-12-18T05:33:33;38.63;;;13.45;;
48845;SDS011;34665;51.886;5.436;2022-12-18T05:36:04;36.65;;;15.13;;
48845;SDS011;34665;51.886;5.436;2022-12-18T05:38:32;41.13;;;16.48;;
48845;SDS011;34665;51.886;5.436;2022-12-18T05:40:59;32.97;;;15.68;;
48845;SDS011;34665;51.886;5.436;2022-12-18T05:43:25;36.10;;;12.82;;
48845;SDS011;34665;51.886;5.436;2022-12-18T05:48:17;39.10;;;15.57;;
48845;SDS011;34665;51.886;5.436;2022-12-18T05:50:44;36.67;;;14.95;;
48845;SDS011;34665;51.886;5.436;2022-12-18T05:53:11;38.58;;;16.08;;
48845;SDS011;34665;51.886;5.436;2022-12-18T05:55:39;37.05;;;16.35;;
48845;SDS011;34665;51.886;5.436;2022-12-18T05:58:06;30.80;;;15.05;;
48845;SDS011;34665;51.886;5.436;2022-12-18T06:00:34;36.30;;;15.20;;
48845;SDS011;34665;51.886;5.436;2022-12-18T06:03:05;39.03;;;16.35;;
48845;SDS011;34665;51.886;5.436;2022-12-18T06:08:01;35.78;;;14.15;;
48845;SDS011;34665;51.886;5.436;2022-12-18T06:10:26;32.83;;;15.35;;
48845;SDS011;34665;51.886;5.436;2022-12-18T06:12:52;36.53;;;14.25;;
48845;SDS011;34665;51.886;5.436;2022-12-18T06:15:18;33.90;;;14.82;;
48845;SDS011;34665;51.886;5.436;2022-12-18T06:17:43;24.15;;;12.50;;
48845;SDS011;34665;51.886;5.436;2022-12-18T06:20:09;36.17;;;15.27;;
48845;SDS011;34665;51.886;5.436;2022-12-18T06:22:35;28.85;;;11.68;;
48845;SDS011;34665;51.886;5.436;2022-12-18T06:25:00;32.95;;;15.20;;
48845;SDS011;34665;51.886;5.436;2022-12-18T06:27:26;34.78;;;13.63;;
48845;SDS011;34665;51.886;5.436;2022-12-18T06:29:52;35.88;;;14.75;;
48845;SDS011;34665;51.886;5.436;2022-12-18T06:32:17;37.97;;;15.10;;
48845;SDS011;34665;51.886;5.436;2022-12-18T06:34:42;37.80;;;14.70;;
48845;SDS011;34665;51.886;5.436;2022-12-18T06:37:08;31.02;;;15.10;;
48845;SDS011;34665;51.886;5.436;2022-12-18T06:39:34;30.92;;;13.68;;
48845;SDS011;34665;51.886;5.436;2022-12-18T06:41:59;33.55;;;14.07;;
48845;SDS011;34665;51.886;5.436;2022-12-18T06:44:25;32.53;;;15.45;;
48845;SDS011;34665;51.886;5.436;2022-12-18T06:46:50;30.48;;;12.00;;
48845;SDS011;34665;51.886;5.436;2022-12-18T06:49:16;32.37;;;14.63;;
48845;SDS011;34665;51.886;5.436;2022-12-18T06:51:41;34.30;;;15.77;;
48845;SDS011;34665;51.886;5.436;2022-12-18T06:54:07;32.30;;;13.30;;
48845;SDS011;34665;51.886;5.436;2022-12-18T06:56:33;38.08;;;16.08;;
48845;SDS011;34665;51.886;5.436;2022-12-18T06:58:58;35.33;;;15.93;;
48845;SDS011;34665;51.886;5.436;2022-12-18T07:01:23;27.13;;;11.90;;
48845;SDS011;34665;51.886;5.436;2022-12-18T07:03:52;37.78;;;15.48;;
48845;SDS011;34665;51.886;5.436;2022-12-18T07:06:21;30.50;;;14.05;;
48845;SDS011;34665;51.886;5.436;2022-12-18T07:08:49;47.08;;;16.67;;
48845;SDS011;34665;51.886;5.436;2022-12-18T07:11:17;36.53;;;15.73;;
48845;SDS011;34665;51.886;5.436;2022-12-18T07:13:43;38.40;;;15.70;;
48845;SDS011;34665;51.886;5.436;2022-12-18T07:16:16;35.80;;;14.40;;
48845;SDS011;34665;51.886;5.436;2022-12-18T07:18:44;34.63;;;14.90;;
48845;SDS011;34665;51.886;5.436;2022-12-18T07:21:11;37.72;;;15.23;;
48845;SDS011;34665;51.886;5.436;2022-12-18T07:23:41;34.60;;;15.25;;
48845;SDS011;34665;51.886;5.436;2022-12-18T07:26:08;34.75;;;15.68;;
48845;SDS011;34665;51.886;5.436;2022-12-18T07:28:36;37.28;;;15.57;;
48845;SDS011;34665;51.886;5.436;2022-12-18T07:33:32;32.92;;;15.07;;
48845;SDS011;34665;51.886;5.436;2022-12-18T07:35:59;40.15;;;14.40;;
48845;SDS011;34665;51.886;5.436;2022-12-18T07:38:26;36.72;;;15.73;;
48845;SDS011;34665;51.886;5.436;2022-12-18T07:40:51;28.60;;;12.87;;
48845;SDS011;34665;51.886;5.436;2022-12-18T07:43:17;25.15;;;12.80;;
48845;SDS011;34665;51.886;5.436;2022-12-18T07:45:43;37.08;;;15.82;;
48845;SDS011;34665;51.886;5.436;2022-12-18T07:48:08;34.60;;;14.95;;
48845;SDS011;34665;51.886;5.436;2022-12-18T07:50:34;36.67;;;16.13;;
48845;SDS011;34665;51.886;5.436;2022-12-18T07:52:59;39.22;;;15.93;;
48845;SDS011;34665;51.886;5.436;2022-12-18T07:55:29;39.55;;;15.85;;
48845;SDS011;34665;51.886;5.436;2022-12-18T07:57:55;36.10;;;15.33;;
48845;SDS011;34665;51.886;5.436;2022-12-18T08:00:21;29.65;;;12.95;;
48845;SDS011;34665;51.886;5.436;2022-12-18T08:02:47;34.17;;;14.43;;
48845;SDS011;34665;51.886;5.436;2022-12-18T08:05:13;37.33;;;15.93;;
48845;SDS011;34665;51.886;5.436;2022-12-18T08:07:38;31.35;;;14.90;;
48845;SDS011;34665;51.886;5.436;2022-12-18T08:10:04;36.40;;;15.93;;
48845;SDS011;34665;51.886;5.436;2022-12-18T08:14:56;29.80;;;13.50;;
48845;SDS011;34665;51.886;5.436;2022-12-18T08:17:21;22.93;;;10.57;;
48845;SDS011;34665;51.886;5.436;2022-12-18T08:19:47;36.33;;;14.93;;
48845;SDS011;34665;51.886;5.436;2022-12-18T08:22:13;32.90;;;15.20;;
48845;SDS011;34665;51.886;5.436;2022-12-18T08:24:38;29.75;;;13.80;;
48845;SDS011;34665;51.886;5.436;2022-12-18T08:27:04;30.27;;;13.00;;
48845;SDS011;34665;51.886;5.436;2022-12-18T08:29:29;33.43;;;14.57;;
48845;SDS011;34665;51.886;5.436;2022-12-18T08:31:55;34.95;;;14.30;;
48845;SDS011;34665;51.886;5.436;2022-12-18T08:34:21;30.92;;;13.38;;
48845;SDS011;34665;51.886;5.436;2022-12-18T08:36:46;32.38;;;14.48;;
48845;SDS011;34665;51.886;5.436;2022-12-18T08:39:12;31.80;;;13.65;;
48845;SDS011;34665;51.886;5.436;2022-12-18T08:41:37;30.83;;;12.87;;
48845;SDS011;34665;51.886;5.436;2022-12-18T08:44:03;26.02;;;11.95;;
48845;SDS011;34665;51.886;5.436;2022-12-18T08:46:48;35.88;;;15.35;;
48845;SDS011;34665;51.886;5.436;2022-12-18T08:49:13;35.27;;;14.17;;
48845;SDS011;34665;51.886;5.436;2022-12-18T08:51:40;29.52;;;14.30;;
48845;SDS011;34665;51.886;5.436;2022-12-18T08:54:05;30.65;;;14.38;;
48845;SDS011;34665;51.886;5.436;2022-12-18T08:56:31;30.50;;;14.65;;
48845;SDS011;34665;51.886;5.436;2022-12-18T08:58:58;25.35;;;12.45;;
48845;SDS011;34665;51.886;5.436;2022-12-18T09:01:23;36.28;;;14.30;;
48845;SDS011;34665;51.886;5.436;2022-12-18T09:03:50;33.10;;;14.32;;
48845;SDS011;34665;51.886;5.436;2022-12-18T09:06:17;39.20;;;15.45;;
48845;SDS011;34665;51.886;5.436;2022-12-18T09:08:44;30.55;;;14.10;;
48845;SDS011;34665;51.886;5.436;2022-12-18T09:11:14;33.97;;;14.40;;
48845;SDS011;34665;51.886;5.436;2022-12-18T09:13:47;31.83;;;12.82;;
48845;SDS011;34665;51.886;5.436;2022-12-18T09:16:13;33.85;;;12.80;;
48845;SDS011;34665;51.886;5.436;2022-12-18T09:18:39;40.97;;;15.53;;
48845;SDS011;34665;51.886;5.436;2022-12-18T09:21:11;30.23;;;13.80;;
48845;SDS011;34665;51.886;5.436;2022-12-18T09:23:38;33.33;;;14.57;;
48845;SDS011;34665;51.886;5.436;2022-12-18T09:26:03;33.08;;;13.10;;
48845;SDS011;34665;51.886;5.436;2022-12-18T09:28:29;32.95;;;12.48;;
48845;SDS011;34665;51.886;5.436;2022-12-18T09:30:55;25.92;;;12.20;;
48845;SDS011;34665;51.886;5.436;2022-12-18T09:33:21;28.63;;;13.27;;
48845;SDS011;34665;51.886;5.436;2022-12-18T09:35:46;24.90;;;11.80;;
48845;SDS011;34665;51.886;5.436;2022-12-18T09:38:13;26.17;;;12.37;;
48845;SDS011;34665;51.886;5.436;2022-12-18T09:40:52;26.83;;;13.75;;
48845;SDS011;34665;51.886;5.436;2022-12-18T09:46:04;26.63;;;12.13;;
48845;SDS011;34665;51.886;5.436;2022-12-18T09:48:36;27.33;;;12.55;;
48845;SDS011;34665;51.886;5.436;2022-12-18T09:51:10;28.40;;;12.60;;
48845;SDS011;34665;51.886;5.436;2022-12-18T09:54:18;31.48;;;13.50;;
48845;SDS011;34665;51.886;5.436;2022-12-18T09:56:42;28.67;;;13.05;;
48845;SDS011;34665;51.886;5.436;2022-12-18T09:59:20;30.92;;;12.95;;
48845;SDS011;34665;51.886;5.436;2022-12-18T10:01:49;28.73;;;12.85;;
48845;SDS011;34665;51.886;5.436;2022-12-18T10:04:14;24.33;;;10.85;;
48845;SDS011;34665;51.886;5.436;2022-12-18T10:14:25;25.45;;;11.85;;
48845;SDS011;34665;51.886;5.436;2022-12-18T10:17:13;30.45;;;12.52;;
48845;SDS011;34665;51.886;5.436;2022-12-18T10:19:52;28.13;;;13.00;;
48845;SDS011;34665;51.886;5.436;2022-12-18T10:23:10;29.98;;;12.30;;
48845;SDS011;34665;51.886;5.436;2022-12-18T10:25:28;28.38;;;12.35;;
48845;SDS011;34665;51.886;5.436;2022-12-18T10:28:10;27.25;;;11.55;;
48845;SDS011;34665;51.886;5.436;2022-12-18T10:30:38;27.10;;;11.63;;
48845;SDS011;34665;51.886;5.436;2022-12-18T10:35:29;27.47;;;11.30;;
48845;SDS011;34665;51.886;5.436;2022-12-18T10:38:02;26.40;;;11.77;;
48845;SDS011;34665;51.886;5.436;2022-12-18T10:43:19;29.65;;;11.48;;
48845;SDS011;34665;51.886;5.436;2022-12-18T10:48:36;30.58;;;12.68;;
48845;SDS011;34665;51.886;5.436;2022-12-18T10:51:06;22.90;;;11.10;;
48845;SDS011;34665;51.886;5.436;2022-12-18T10:53:33;26.85;;;10.85;;
48845;SDS011;34665;51.886;5.436;2022-12-18T10:56:02;24.08;;;11.02;;
48845;SDS011;34665;51.886;5.436;2022-12-18T10:58:33;27.55;;;12.32;;
48845;SDS011;34665;51.886;5.436;2022-12-18T11:01:02;23.80;;;11.18;;
48845;SDS011;34665;51.886;5.436;2022-12-18T11:03:39;25.38;;;11.57;;
48845;SDS011;34665;51.886;5.436;2022-12-18T11:06:13;28.08;;;11.88;;
48845;SDS011;34665;51.886;5.436;2022-12-18T11:08:42;26.38;;;10.85;;
48845;SDS011;34665;51.886;5.436;2022-12-18T11:11:22;30.45;;;11.95;;
48845;SDS011;34665;51.886;5.436;2022-12-18T11:13:58;28.23;;;11.57;;
48845;SDS011;34665;51.886;5.436;2022-12-18T11:16:27;28.70;;;12.07;;
48845;SDS011;34665;51.886;5.436;2022-12-18T11:18:59;27.05;;;11.93;;
48845;SDS011;34665;51.886;5.436;2022-12-18T11:21:47;21.30;;;10.88;;
48845;SDS011;34665;51.886;5.436;2022-12-18T11:24:35;23.73;;;11.55;;
48845;SDS011;34665;51.886;5.436;2022-12-18T11:29:38;28.83;;;11.93;;
48845;SDS011;34665;51.886;5.436;2022-12-18T11:32:24;27.42;;;12.10;;
48845;SDS011;34665;51.886;5.436;2022-12-18T11:35:03;26.45;;;11.57;;
48845;SDS011;34665;51.886;5.436;2022-12-18T11:37:48;28.77;;;13.45;;
48845;SDS011;34665;51.886;5.436;2022-12-18T11:40:27;26.17;;;12.13;;
48845;SDS011;34665;51.886;5.436;2022-12-18T11:46:08;33.58;;;12.38;;
48845;SDS011;34665;51.886;5.436;2022-12-18T11:48:43;25.50;;;11.25;;
48845;SDS011;34665;51.886;5.436;2022-12-18T11:51:25;26.77;;;11.57;;
48845;SDS011;34665;51.886;5.436;2022-12-18T11:53:57;28.38;;;11.40;;
48845;SDS011;34665;51.886;5.436;2022-12-18T11:56:35;23.23;;;10.47;;
48845;SDS011;34665;51.886;5.436;2022-12-18T11:59:08;25.95;;;12.25;;
48845;SDS011;34665;51.886;5.436;2022-12-18T12:01:55;27.40;;;12.25;;
48845;SDS011;34665;51.886;5.436;2022-12-18T12:04:50;25.27;;;12.07;;
48845;SDS011;34665;51.886;5.436;2022-12-18T12:07:44;25.40;;;11.32;;
48845;SDS011;34665;51.886;5.436;2022-12-18T12:15:59;27.52;;;11.55;;
48845;SDS011;34665;51.886;5.436;2022-12-18T12:27:26;24.85;;;11.77;;
48845;SDS011;34665;51.886;5.436;2022-12-18T12:30:19;27.85;;;12.27;;
48845;SDS011;34665;51.886;5.436;2022-12-18T12:35:23;24.38;;;11.23;;
48845;SDS011;34665;51.886;5.436;2022-12-18T12:38:02;23.35;;;11.88;;
48845;SDS011;34665;51.886;5.436;2022-12-18T12:40:35;29.95;;;12.55;;
48845;SDS011;34665;51.886;5.436;2022-12-18T12:43:12;24.65;;;11.18;;
48845;SDS011;34665;51.886;5.436;2022-12-18T12:45:49;23.85;;;11.68;;
48845;SDS011;34665;51.886;5.436;2022-12-18T12:48:33;27.00;;;12.30;;
48845;SDS011;34665;51.886;5.436;2022-12-18T12:51:15;26.88;;;13.25;;
48845;SDS011;34665;51.886;5.436;2022-12-18T12:53:43;26.67;;;12.02;;
48845;SDS011;34665;51.886;5.436;2022-12-18T12:58:55;21.08;;;9.85;;
48845;SDS011;34665;51.886;5.436;2022-12-18T13:01:36;24.25;;;11.05;;
48845;SDS011;34665;51.886;5.436;2022-12-18T13:07:03;30.20;;;12.82;;
48845;SDS011;34665;51.886;5.436;2022-12-18T13:13:04;27.38;;;11.75;;
48845;SDS011;34665;51.886;5.436;2022-12-18T13:15:41;23.65;;;12.25;;
48845;SDS011;34665;51.886;5.436;2022-12-18T13:20:35;28.10;;;12.73;;
48845;SDS011;34665;51.886;5.436;2022-12-18T13:25:57;31.33;;;12.52;;
48845;SDS011;34665;51.886;5.436;2022-12-18T13:28:24;26.63;;;12.25;;
48845;SDS011;34665;51.886;5.436;2022-12-18T13:31:15;26.63;;;11.63;;
48845;SDS011;34665;51.886;5.436;2022-12-18T13:36:36;23.33;;;11.63;;
48845;SDS011;34665;51.886;5.436;2022-12-18T13:41:46;26.60;;;11.18;;
48845;SDS011;34665;51.886;5.436;2022-12-18T13:46:54;25.10;;;12.27;;
48845;SDS011;34665;51.886;5.436;2022-12-18T13:49:22;27.20;;;11.35;;
48845;SDS011;34665;51.886;5.436;2022-12-18T13:51:50;27.63;;;11.88;;
48845;SDS011;34665;51.886;5.436;2022-12-18T13:54:19;26.05;;;12.13;;
48845;SDS011;34665;51.886;5.436;2022-12-18T13:56:47;25.52;;;12.55;;
48845;SDS011;34665;51.886;5.436;2022-12-18T14:01:41;27.58;;;12.65;;
48845;SDS011;34665;51.886;5.436;2022-12-18T14:04:21;28.75;;;12.40;;
48845;SDS011;34665;51.886;5.436;2022-12-18T14:06:47;26.38;;;11.75;;
48845;SDS011;34665;51.886;5.436;2022-12-18T14:09:16;26.88;;;13.13;;
48845;SDS011;34665;51.886;5.436;2022-12-18T14:11:48;27.85;;;11.18;;
48845;SDS011;34665;51.886;5.436;2022-12-18T14:14:18;29.20;;;13.85;;
48845;SDS011;34665;51.886;5.436;2022-12-18T14:16:45;25.48;;;12.30;;
48845;SDS011;34665;51.886;5.436;2022-12-18T14:19:13;29.52;;;12.43;;
48845;SDS011;34665;51.886;5.436;2022-12-18T14:21:44;28.85;;;12.98;;
48845;SDS011;34665;51.886;5.436;2022-12-18T14:24:16;24.17;;;11.90;;
48845;SDS011;34665;51.886;5.436;2022-12-18T14:26:46;29.27;;;12.18;;
48845;SDS011;34665;51.886;5.436;2022-12-18T14:29:31;31.40;;;13.07;;
48845;SDS011;34665;51.886;5.436;2022-12-18T14:32:18;25.65;;;11.88;;
48845;SDS011;34665;51.886;5.436;2022-12-18T14:34:54;26.13;;;11.88;;
48845;SDS011;34665;51.886;5.436;2022-12-18T14:37:21;29.30;;;11.82;;
48845;SDS011;34665;51.886;5.436;2022-12-18T14:39:53;26.35;;;12.52;;
48845;SDS011;34665;51.886;5.436;2022-12-18T14:42:23;29.85;;;13.05;;
48845;SDS011;34665;51.886;5.436;2022-12-18T14:45:31;28.13;;;12.35;;
48845;SDS011;34665;51.886;5.436;2022-12-18T14:47:57;28.70;;;11.85;;
48845;SDS011;34665;51.886;5.436;2022-12-18T14:52:49;30.47;;;13.47;;
48845;SDS011;34665;51.886;5.436;2022-12-18T14:55:18;30.05;;;13.60;;
48845;SDS011;34665;51.886;5.436;2022-12-18T14:57:49;29.85;;;11.98;;
48845;SDS011;34665;51.886;5.436;2022-12-18T15:00:18;32.17;;;12.80;;
48845;SDS011;34665;51.886;5.436;2022-12-18T15:02:52;30.15;;;14.25;;
48845;SDS011;34665;51.886;5.436;2022-12-18T15:05:26;32.60;;;13.40;;
48845;SDS011;34665;51.886;5.436;2022-12-18T15:07:54;28.75;;;12.43;;
48845;SDS011;34665;51.886;5.436;2022-12-18T15:10:25;33.05;;;13.98;;
48845;SDS011;34665;51.886;5.436;2022-12-18T15:18:03;30.13;;;13.50;;
48845;SDS011;34665;51.886;5.436;2022-12-18T15:20:38;30.90;;;14.52;;
48845;SDS011;34665;51.886;5.436;2022-12-18T15:23:12;32.08;;;12.55;;
48845;SDS011;34665;51.886;5.436;2022-12-18T15:25:40;30.38;;;13.15;;
48845;SDS011;34665;51.886;5.436;2022-12-18T15:29:15;34.10;;;14.73;;
48845;SDS011;34665;51.886;5.436;2022-12-18T15:33:39;32.83;;;12.03;;
48845;SDS011;34665;51.886;5.436;2022-12-18T15:36:18;27.85;;;13.23;;
48845;SDS011;34665;51.886;5.436;2022-12-18T15:38:48;28.55;;;13.48;;
48845;SDS011;34665;51.886;5.436;2022-12-18T15:41:16;39.55;;;15.75;;
48845;SDS011;34665;51.886;5.436;2022-12-18T15:43:43;31.10;;;14.32;;
48845;SDS011;34665;51.886;5.436;2022-12-18T15:48:43;36.47;;;13.88;;
48845;SDS011;34665;51.886;5.436;2022-12-18T15:54:01;31.15;;;14.80;;
48845;SDS011;34665;51.886;5.436;2022-12-18T15:56:31;29.05;;;13.65;;
48845;SDS011;34665;51.886;5.436;2022-12-18T15:59:17;34.67;;;14.00;;
48845;SDS011;34665;51.886;5.436;2022-12-18T16:01:45;30.25;;;14.98;;
48845;SDS011;34665;51.886;5.436;2022-12-18T16:04:13;34.70;;;15.00;;
48845;SDS011;34665;51.886;5.436;2022-12-18T16:06:40;29.20;;;12.63;;
48845;SDS011;34665;51.886;5.436;2022-12-18T16:09:06;33.50;;;13.38;;
48845;SDS011;34665;51.886;5.436;2022-12-18T16:11:32;31.35;;;14.98;;
48845;SDS011;34665;51.886;5.436;2022-12-18T16:14:16;29.38;;;14.02;;
48845;SDS011;34665;51.886;5.436;2022-12-18T16:16:45;32.85;;;14.45;;
48845;SDS011;34665;51.886;5.436;2022-12-18T16:19:11;35.08;;;15.63;;
48845;SDS011;34665;51.886;5.436;2022-12-18T16:21:37;33.03;;;15.63;;
48845;SDS011;34665;51.886;5.436;2022-12-18T16:24:02;34.87;;;14.27;;
48845;SDS011;34665;51.886;5.436;2022-12-18T16:26:28;29.87;;;13.83;;
48845;SDS011;34665;51.886;5.436;2022-12-18T16:28:53;39.45;;;14.48;;
48845;SDS011;34665;51.886;5.436;2022-12-18T16:31:19;30.27;;;14.90;;